createdAt,value
2023-02-23T00:01:45.383Z,10.98
2023-02-23T00:05:47.375Z,9.40
2023-02-23T00:09:50.792Z,7.88
2023-02-23T00:13:52.770Z,8.05
2023-02-23T00:17:55.750Z,8.27
2023-02-23T00:21:58.872Z,8.60
2023-02-23T00:26:04.277Z,9.98
2023-02-23T00:30:07.251Z,8.85
2023-02-23T00:34:11.493Z,8.45
2023-02-23T00:38:13.975Z,8.75
2023-02-23T00:42:16.000Z,10.95
2023-02-23T00:46:21.307Z,11.40
2023-02-23T00:50:23.492Z,8.55
2023-02-23T00:54:25.998Z,9.32
2023-02-23T00:58:30.476Z,9.68
2023-02-23T01:02:32.705Z,10.45
2023-02-23T01:06:37.637Z,7.82
2023-02-23T01:10:42.623Z,6.55
2023-02-23T01:14:47.711Z,5.93
2023-02-23T01:18:49.755Z,6.38
2023-02-23T01:22:52.461Z,6.85
2023-02-23T01:26:54.608Z,7.03
2023-02-23T01:30:56.615Z,7.40
2023-02-23T01:34:58.678Z,7.15
2023-02-23T01:39:00.784Z,7.45
2023-02-23T01:43:25.975Z,7.85
2023-02-23T01:47:28.091Z,7.50
2023-02-23T01:51:34.060Z,7.47
2023-02-23T01:55:37.964Z,8.38
2023-02-23T01:59:43.985Z,8.27
2023-02-23T02:03:49.786Z,9.25
2023-02-23T02:07:59.074Z,8.07
2023-02-23T02:12:02.602Z,8.50
2023-02-23T02:16:29.038Z,8.65
2023-02-23T02:25:15.557Z,8.52
2023-02-23T02:29:26.374Z,9.80
2023-02-23T02:34:00.217Z,9.00
2023-02-23T02:38:53.675Z,8.10
2023-02-23T02:43:22.809Z,8.77
2023-02-23T02:47:40.578Z,9.82
2023-02-23T02:51:55.828Z,9.35
2023-02-23T02:56:00.443Z,10.45
2023-02-23T03:00:21.318Z,8.95
2023-02-23T03:04:44.054Z,10.10
2023-02-23T03:09:08.680Z,10.57
2023-02-23T03:13:42.812Z,15.90
2023-02-23T03:18:17.761Z,13.80
2023-02-23T03:22:45.295Z,15.73
2023-02-23T03:27:17.574Z,15.95
2023-02-23T03:32:05.492Z,16.10
2023-02-23T03:36:36.100Z,14.43
2023-02-23T03:41:00.978Z,16.63
2023-02-23T03:45:26.976Z,13.00
2023-02-23T03:49:53.201Z,14.05
2023-02-23T03:54:49.136Z,14.40
2023-02-23T03:59:21.309Z,14.43
2023-02-23T04:03:45.680Z,13.10
2023-02-23T04:08:07.960Z,11.68
2023-02-23T04:12:56.166Z,11.45
2023-02-23T04:16:58.964Z,11.75
2023-02-23T04:21:01.586Z,9.43
2023-02-23T04:25:06.108Z,10.57
2023-02-23T04:29:08.333Z,10.40
2023-02-23T04:33:11.465Z,10.73
2023-02-23T04:37:13.947Z,9.77
2023-02-23T04:41:16.022Z,12.57
2023-02-23T04:45:18.269Z,8.48
2023-02-23T04:49:20.502Z,9.57
2023-02-23T04:53:22.592Z,8.38
2023-02-23T04:57:24.496Z,10.75
2023-02-23T05:01:27.191Z,10.02
2023-02-23T05:05:29.171Z,8.77
2023-02-23T05:09:31.851Z,9.90
2023-02-23T05:13:33.751Z,9.02
2023-02-23T05:17:38.380Z,8.48
2023-02-23T05:21:41.315Z,9.35
2023-02-23T05:25:43.239Z,9.07
2023-02-23T05:29:45.173Z,9.13
2023-02-23T05:33:47.090Z,9.32
2023-02-23T05:37:49.028Z,8.05
2023-02-23T05:41:51.031Z,8.52
2023-02-23T05:45:52.979Z,8.75
2023-02-23T05:49:54.534Z,8.18
2023-02-23T05:53:56.655Z,7.75
2023-02-23T05:57:58.641Z,7.90
2023-02-23T06:02:00.590Z,8.05
2023-02-23T06:06:02.547Z,8.40
2023-02-23T06:10:05.669Z,8.57
2023-02-23T06:14:07.575Z,7.90
2023-02-23T06:18:10.060Z,8.18
2023-02-23T06:22:12.464Z,7.47
2023-02-23T06:26:14.527Z,7.60
2023-02-23T06:30:16.643Z,7.47
2023-02-23T06:34:19.041Z,7.65
2023-02-23T06:38:21.977Z,8.48
2023-02-23T06:42:24.515Z,7.88
2023-02-23T06:46:26.603Z,7.72
2023-02-23T06:50:28.736Z,6.90
2023-02-23T06:54:30.699Z,8.05
2023-02-23T06:58:32.759Z,7.90
2023-02-23T07:02:36.542Z,8.38
2023-02-23T07:06:39.092Z,8.90
2023-02-23T07:10:41.150Z,9.23
2023-02-23T07:14:43.241Z,8.48
2023-02-23T07:18:45.171Z,7.97
2023-02-23T07:22:47.196Z,8.40
2023-02-23T07:26:49.512Z,8.02
2023-02-23T07:30:51.579Z,7.88
2023-02-23T07:34:54.033Z,8.50
2023-02-23T07:38:56.055Z,8.15
2023-02-23T07:42:58.556Z,9.18
2023-02-23T07:47:01.105Z,8.32
2023-02-23T07:51:10.127Z,8.75
2023-02-23T07:55:12.661Z,9.60
2023-02-23T07:59:15.315Z,8.55
2023-02-23T08:03:17.528Z,8.70
2023-02-23T08:07:20.322Z,8.48
2023-02-23T08:11:22.662Z,7.47
2023-02-23T08:15:25.060Z,7.82
2023-02-23T08:19:27.791Z,7.57
2023-02-23T08:23:31.615Z,10.05
2023-02-23T08:27:35.504Z,9.38
2023-02-23T08:31:37.847Z,8.77
2023-02-23T08:35:40.084Z,8.15
2023-02-23T08:39:43.612Z,7.75
2023-02-23T08:43:45.734Z,9.20
2023-02-23T08:47:47.717Z,9.15
2023-02-23T08:51:50.374Z,9.85
2023-02-23T08:55:59.265Z,9.23
2023-02-23T09:00:02.339Z,9.50
2023-02-23T09:04:05.738Z,9.60
2023-02-23T09:08:07.836Z,10.32
2023-02-23T09:12:10.216Z,10.50
2023-02-23T09:16:13.552Z,10.13
2023-02-23T09:20:17.413Z,10.80
2023-02-23T09:24:21.748Z,10.05
2023-02-23T09:28:23.847Z,10.63
2023-02-23T09:32:26.048Z,11.60
2023-02-23T09:36:29.387Z,10.25
2023-02-23T09:40:46.359Z,9.98
2023-02-23T09:45:03.915Z,9.73
2023-02-23T09:49:16.143Z,8.65
2023-02-23T09:53:31.632Z,9.80
2023-02-23T09:57:43.619Z,8.52
2023-02-23T10:01:48.386Z,9.95
2023-02-23T10:05:59.712Z,9.45
2023-02-23T10:10:25.341Z,9.43
2023-02-23T10:14:42.689Z,9.68
2023-02-23T10:19:42.871Z,8.88
2023-02-23T10:23:54.033Z,9.55
2023-02-23T10:27:56.800Z,9.63
2023-02-23T10:32:05.344Z,8.73
2023-02-23T10:36:19.382Z,8.98
2023-02-23T10:40:24.538Z,15.65
2023-02-23T10:44:28.607Z,10.05
2023-02-23T10:48:43.325Z,9.77
2023-02-23T10:52:47.996Z,10.07
2023-02-23T10:56:50.554Z,10.63
2023-02-23T11:01:01.070Z,9.38
2023-02-23T11:05:06.064Z,8.90
2023-02-23T11:09:43.370Z,9.25
2023-02-23T11:18:05.219Z,9.98
2023-02-23T11:22:10.526Z,9.50
2023-02-23T11:26:24.358Z,10.10
2023-02-23T11:30:38.115Z,10.10
2023-02-23T11:34:41.135Z,10.10
2023-02-23T11:38:45.902Z,9.63
2023-02-23T11:43:15.201Z,10.52
2023-02-23T11:47:21.652Z,10.32
2023-02-23T11:51:32.120Z,9.18
2023-02-23T11:55:37.500Z,8.43
2023-02-23T11:59:41.328Z,9.40
2023-02-23T12:03:56.640Z,8.68
2023-02-23T12:08:06.842Z,8.82
2023-02-23T12:12:18.222Z,8.57
2023-02-23T12:16:28.751Z,8.82
2023-02-23T12:20:36.262Z,9.52
2023-02-23T12:24:44.093Z,8.93
2023-02-23T12:28:59.549Z,7.80
2023-02-23T12:33:30.015Z,11.75
2023-02-23T12:37:38.811Z,9.55
2023-02-23T12:41:48.762Z,9.93
2023-02-23T12:45:55.928Z,12.43
2023-02-23T12:50:13.137Z,9.27
2023-02-23T12:54:16.632Z,8.63
2023-02-23T12:58:29.315Z,8.10
2023-02-23T13:02:40.938Z,7.82
2023-02-23T13:07:10.405Z,7.93
2023-02-23T13:15:54.339Z,7.97
2023-02-23T13:20:01.189Z,7.55
2023-02-23T13:24:27.253Z,8.02
2023-02-23T13:28:52.332Z,7.68
2023-02-23T13:32:55.320Z,7.07
2023-02-23T13:37:00.158Z,7.90
2023-02-23T13:41:24.460Z,6.90
2023-02-23T13:45:36.416Z,7.03
2023-02-23T13:49:46.485Z,7.78
2023-02-23T13:53:57.505Z,8.27
2023-02-23T13:58:15.280Z,8.48
2023-02-23T14:02:40.872Z,7.90
2023-02-23T14:06:53.844Z,8.20
2023-02-23T14:10:57.346Z,8.20
2023-02-23T14:15:28.317Z,8.20
2023-02-23T14:19:35.629Z,8.20
2023-02-23T14:23:52.848Z,9.73
2023-02-23T14:28:01.522Z,9.52
2023-02-23T14:32:12.661Z,9.60
2023-02-23T14:36:23.873Z,9.73
2023-02-23T14:40:33.902Z,8.90
2023-02-23T14:44:43.346Z,8.50
2023-02-23T14:49:00.213Z,8.50
2023-02-23T14:53:04.749Z,7.90
2023-02-23T14:57:19.422Z,8.90
2023-02-23T15:01:38.684Z,8.55
2023-02-23T15:05:47.642Z,9.77
2023-02-23T15:09:52.312Z,8.52
2023-02-23T15:13:54.819Z,9.65
2023-02-23T15:18:01.248Z,9.95
2023-02-23T15:22:04.607Z,9.13
2023-02-23T15:26:40.087Z,10.38
2023-02-23T15:30:47.719Z,15.45
2023-02-23T15:34:51.470Z,17.07
2023-02-23T15:38:56.335Z,13.93
2023-02-23T15:43:01.729Z,14.30
2023-02-23T15:47:06.364Z,14.38
2023-02-23T15:51:22.956Z,13.25
2023-02-23T15:55:28.844Z,12.85
2023-02-23T15:59:35.819Z,12.15
2023-02-23T16:03:44.157Z,16.00
2023-02-23T16:11:55.044Z,16.60
2023-02-23T16:15:57.527Z,14.90
2023-02-23T16:20:18.817Z,12.77
2023-02-23T16:24:25.515Z,14.15
2023-02-23T16:28:31.162Z,15.23
2023-02-23T16:32:37.005Z,13.02
2023-02-23T16:36:40.230Z,12.90
2023-02-23T16:40:42.546Z,15.15
2023-02-23T16:44:47.169Z,14.55
2023-02-23T16:48:49.336Z,20.58
2023-02-23T16:52:55.025Z,24.25
2023-02-23T16:56:57.460Z,19.52
2023-02-23T17:00:59.514Z,21.48
2023-02-23T17:05:01.574Z,18.42
2023-02-23T17:09:03.890Z,18.70
2023-02-23T17:13:11.139Z,17.80
2023-02-23T17:17:17.624Z,17.33
2023-02-23T17:21:23.787Z,18.30
2023-02-23T17:25:26.593Z,18.55
2023-02-23T17:29:28.693Z,18.92
2023-02-23T17:33:34.767Z,18.77
2023-02-23T17:37:39.763Z,19.45
2023-02-23T17:41:41.720Z,20.58
2023-02-23T17:45:43.691Z,22.23
2023-02-23T17:49:45.598Z,23.10
2023-02-23T17:53:47.736Z,26.38
2023-02-23T17:57:49.674Z,25.55
2023-02-23T18:01:51.682Z,27.10
2023-02-23T18:05:53.322Z,29.08
2023-02-23T18:09:55.326Z,29.05
2023-02-23T18:13:57.306Z,25.88
2023-02-23T18:18:01.378Z,26.63
2023-02-23T18:22:03.451Z,24.83
2023-02-23T18:26:07.725Z,26.27
2023-02-23T18:30:10.847Z,24.17
2023-02-23T18:34:12.961Z,27.38
2023-02-23T18:38:15.833Z,26.48
2023-02-23T18:42:18.021Z,28.27
2023-02-23T18:46:19.984Z,28.13
2023-02-23T18:50:22.864Z,23.55
2023-02-23T18:54:26.660Z,26.55
2023-02-23T18:58:28.790Z,27.25
2023-02-23T19:02:30.704Z,27.33
2023-02-23T19:06:33.940Z,26.15
2023-02-23T19:10:36.339Z,26.73
2023-02-23T19:14:49.249Z,26.15
2023-02-23T19:18:52.248Z,26.08
2023-02-23T19:22:54.462Z,24.10
2023-02-23T19:26:56.490Z,26.15
2023-02-23T19:31:06.960Z,25.38
2023-02-23T19:35:14.757Z,25.05
2023-02-23T19:39:16.951Z,26.75
2023-02-23T19:43:18.887Z,26.38
2023-02-23T19:47:20.938Z,24.88
2023-02-23T19:51:23.938Z,26.73
2023-02-23T19:55:26.208Z,27.95
2023-02-23T19:59:28.698Z,28.70
2023-02-23T20:03:30.822Z,27.15
2023-02-23T20:07:32.754Z,29.08
2023-02-23T20:11:34.716Z,27.60
2023-02-23T20:15:37.096Z,28.95
2023-02-23T20:19:39.337Z,31.35
2023-02-23T20:23:43.032Z,29.77
2023-02-23T20:27:45.119Z,31.65
2023-02-23T20:31:51.393Z,29.95
2023-02-23T20:35:53.338Z,31.42
2023-02-23T20:39:55.256Z,31.98
2023-02-23T20:43:57.799Z,31.27
2023-02-23T20:47:59.930Z,31.35
2023-02-23T20:52:03.163Z,32.50
2023-02-23T20:56:06.771Z,33.47
2023-02-23T21:00:09.733Z,32.42
2023-02-23T21:04:13.141Z,33.63
2023-02-23T21:08:15.788Z,37.22
2023-02-23T21:12:17.718Z,34.80
2023-02-23T21:16:23.654Z,43.28
2023-02-23T21:20:27.482Z,42.38
2023-02-23T21:24:33.691Z,43.00
2023-02-23T21:28:35.729Z,37.72
2023-02-23T21:32:41.367Z,36.85
2023-02-23T21:36:43.404Z,34.65
2023-02-23T21:40:45.465Z,38.60
2023-02-23T21:44:48.166Z,38.08
2023-02-23T21:48:50.255Z,38.47
2023-02-23T21:52:56.012Z,36.90
2023-02-23T21:56:58.119Z,35.78
2023-02-23T22:01:00.080Z,36.60
2023-02-23T22:05:02.059Z,35.38
2023-02-23T22:09:05.900Z,38.22
2023-02-23T22:13:08.044Z,35.15
2023-02-23T22:17:11.264Z,39.97
2023-02-23T22:21:13.942Z,41.97
2023-02-23T22:25:17.324Z,39.17
2023-02-23T22:29:19.750Z,37.40
2023-02-23T22:33:23.507Z,39.00
2023-02-23T22:37:29.901Z,40.92
2023-02-23T22:41:31.936Z,39.67
2023-02-23T22:45:35.786Z,41.95
2023-02-23T22:49:37.714Z,43.25
2023-02-23T22:53:39.748Z,44.53
2023-02-23T22:57:41.691Z,40.88
2023-02-23T23:01:43.946Z,42.20
2023-02-23T23:05:50.996Z,41.30
2023-02-23T23:09:53.396Z,40.88
2023-02-23T23:14:02.105Z,40.83
2023-02-23T23:18:06.654Z,41.45
2023-02-23T23:22:14.258Z,37.13
2023-02-23T23:26:20.063Z,40.08
2023-02-23T23:30:25.903Z,40.60
2023-02-23T23:34:28.231Z,42.45
2023-02-23T23:38:32.892Z,42.42
2023-02-23T23:42:34.911Z,41.20
2023-02-23T23:46:38.587Z,39.72
2023-02-23T23:50:40.635Z,40.08
2023-02-23T23:54:42.852Z,40.30
2023-02-23T23:58:44.858Z,41.45
